createdAt,value
2022-09-30T00:00:56.655Z,3.10
2022-09-30T00:03:24.306Z,2.80
2022-09-30T00:06:07.614Z,2.90
2022-09-30T00:08:34.984Z,2.93
2022-09-30T00:11:06.044Z,3.40
2022-09-30T00:13:35.635Z,3.00
2022-09-30T00:16:02.454Z,3.10
2022-09-30T00:18:30.071Z,3.40
2022-09-30T00:20:57.043Z,3.40
2022-09-30T00:23:24.178Z,3.23
2022-09-30T00:25:51.726Z,3.20
2022-09-30T00:28:18.292Z,2.97
2022-09-30T00:30:44.931Z,3.30
2022-09-30T00:33:11.607Z,3.03
2022-09-30T00:35:38.366Z,3.20
2022-09-30T00:38:05.170Z,2.97
2022-09-30T00:40:31.964Z,3.13
2022-09-30T00:43:00.127Z,3.17
2022-09-30T00:45:33.142Z,3.23
2022-09-30T00:48:15.373Z,3.33
2022-09-30T00:50:49.749Z,3.53
2022-09-30T00:53:30.977Z,3.00
2022-09-30T00:56:04.748Z,3.20
2022-09-30T00:58:36.063Z,2.87
2022-09-30T01:01:03.167Z,3.10
2022-09-30T01:03:40.566Z,2.77
2022-09-30T01:06:07.625Z,3.03
2022-09-30T01:08:37.366Z,3.20
2022-09-30T01:11:07.971Z,3.57
2022-09-30T01:13:37.945Z,3.47
2022-09-30T01:16:23.098Z,3.00
2022-09-30T01:19:17.621Z,3.60
2022-09-30T01:21:59.208Z,3.20
2022-09-30T01:24:47.836Z,3.13
2022-09-30T01:27:39.118Z,3.03
2022-09-30T01:30:08.642Z,3.07
2022-09-30T01:32:38.120Z,3.20
2022-09-30T01:35:24.158Z,3.07
2022-09-30T01:38:11.623Z,2.97
2022-09-30T01:41:05.805Z,3.67
2022-09-30T01:44:04.995Z,2.90
2022-09-30T01:46:44.563Z,3.33
2022-09-30T01:49:27.579Z,3.40
2022-09-30T01:51:59.989Z,3.80
2022-09-30T01:54:55.158Z,3.67
2022-09-30T01:58:12.661Z,3.93
2022-09-30T02:00:44.256Z,4.40
2022-09-30T02:03:17.831Z,3.30
2022-09-30T02:05:57.840Z,3.90
2022-09-30T02:08:36.764Z,3.37
2022-09-30T02:11:10.893Z,4.23
2022-09-30T02:13:49.820Z,3.93
2022-09-30T02:16:24.408Z,4.17
2022-09-30T02:18:55.720Z,3.87
2022-09-30T02:21:33.645Z,3.90
2022-09-30T02:24:06.085Z,4.10
2022-09-30T02:26:37.659Z,4.00
2022-09-30T02:29:17.134Z,3.73
2022-09-30T02:31:47.724Z,4.10
2022-09-30T02:34:25.226Z,4.10
2022-09-30T02:36:56.213Z,4.30
2022-09-30T02:39:31.933Z,4.00
2022-09-30T02:42:04.642Z,3.83
2022-09-30T02:44:31.922Z,3.77
2022-09-30T02:47:10.818Z,4.33
2022-09-30T02:49:48.562Z,4.20
2022-09-30T02:52:47.273Z,4.47
2022-09-30T02:55:25.649Z,4.13
2022-09-30T02:57:55.418Z,4.10
2022-09-30T03:00:22.132Z,4.60
2022-09-30T03:02:50.204Z,5.80
2022-09-30T03:05:17.637Z,10.20
2022-09-30T03:07:44.314Z,14.73
2022-09-30T03:10:16.154Z,8.43
2022-09-30T03:13:10.888Z,10.30
2022-09-30T03:16:01.213Z,9.00
2022-09-30T03:18:52.520Z,8.33
2022-09-30T03:21:25.271Z,6.27
2022-09-30T03:24:12.533Z,8.57
2022-09-30T03:26:47.993Z,8.73
2022-09-30T03:29:14.837Z,9.73
2022-09-30T03:31:51.002Z,10.60
2022-09-30T03:34:42.165Z,10.40
2022-09-30T03:37:34.721Z,10.43
2022-09-30T03:40:25.213Z,10.67
2022-09-30T03:42:58.419Z,9.87
2022-09-30T03:45:50.122Z,9.90
2022-09-30T03:48:19.475Z,9.53
2022-09-30T03:50:46.740Z,9.37
2022-09-30T03:53:13.821Z,10.17
2022-09-30T03:55:52.289Z,10.87
2022-09-30T03:58:23.326Z,9.27
2022-09-30T04:00:57.221Z,9.27
2022-09-30T04:03:23.959Z,9.13
2022-09-30T04:05:50.631Z,9.00
2022-09-30T04:08:17.668Z,8.90
2022-09-30T04:10:44.493Z,10.67
2022-09-30T04:13:11.867Z,11.43
2022-09-30T04:15:38.827Z,9.07
2022-09-30T04:18:05.823Z,10.50
2022-09-30T04:20:32.897Z,10.03
2022-09-30T04:23:01.102Z,10.67
2022-09-30T04:25:28.414Z,11.10
2022-09-30T04:27:56.510Z,11.37
2022-09-30T04:30:26.378Z,11.33
2022-09-30T04:32:54.786Z,11.07
2022-09-30T04:35:21.718Z,11.47
2022-09-30T04:37:48.563Z,11.90
2022-09-30T04:40:16.370Z,11.63
2022-09-30T04:42:44.084Z,11.10
2022-09-30T04:45:12.273Z,9.73
2022-09-30T04:47:40.004Z,9.27
2022-09-30T04:50:07.515Z,10.70
2022-09-30T04:52:34.419Z,10.80
2022-09-30T04:55:01.010Z,10.17
2022-09-30T04:57:27.638Z,8.73
2022-09-30T04:59:54.277Z,10.17
2022-09-30T05:02:21.213Z,10.83
2022-09-30T05:04:47.928Z,11.17
2022-09-30T05:07:14.517Z,9.53
2022-09-30T05:09:41.220Z,9.60
2022-09-30T05:12:08.243Z,10.43
2022-09-30T05:14:34.843Z,8.97
2022-09-30T05:17:02.216Z,8.47
2022-09-30T05:19:29.494Z,10.03
2022-09-30T05:21:56.233Z,11.97
2022-09-30T05:24:22.884Z,10.10
2022-09-30T05:26:49.496Z,13.83
2022-09-30T05:29:16.115Z,11.03
2022-09-30T05:31:43.190Z,9.73
2022-09-30T05:34:12.627Z,10.73
2022-09-30T05:36:39.250Z,10.47
2022-09-30T05:39:05.870Z,10.33
2022-09-30T05:41:32.755Z,14.10
2022-09-30T05:44:01.274Z,12.53
2022-09-30T05:46:28.367Z,12.03
2022-09-30T05:48:55.431Z,13.00
2022-09-30T05:51:22.194Z,12.63
2022-09-30T05:53:48.809Z,13.27
2022-09-30T05:56:18.126Z,13.17
2022-09-30T05:58:44.809Z,14.07
2022-09-30T06:01:14.214Z,14.50
2022-09-30T06:03:45.557Z,13.20
2022-09-30T06:06:12.929Z,13.60
2022-09-30T06:08:40.327Z,14.07
2022-09-30T06:11:13.241Z,16.13
2022-09-30T06:13:41.683Z,14.83
2022-09-30T06:16:09.353Z,14.87
2022-09-30T06:18:36.915Z,14.57
2022-09-30T06:21:05.269Z,13.57
2022-09-30T06:23:35.115Z,12.70
2022-09-30T06:26:03.548Z,13.33
2022-09-30T06:28:30.408Z,12.27
2022-09-30T06:31:01.472Z,13.00
2022-09-30T06:33:28.867Z,12.87
2022-09-30T06:35:55.682Z,14.63
2022-09-30T06:38:23.247Z,13.90
2022-09-30T06:40:50.527Z,14.30
2022-09-30T06:43:18.024Z,14.37
2022-09-30T06:45:49.894Z,14.27
2022-09-30T06:48:20.059Z,15.30
2022-09-30T06:51:01.332Z,15.17
2022-09-30T06:53:29.383Z,15.60
2022-09-30T06:55:58.833Z,14.90
2022-09-30T06:58:25.887Z,14.77
2022-09-30T07:01:06.453Z,14.70
2022-09-30T07:03:35.750Z,14.40
2022-09-30T07:06:05.515Z,14.47
2022-09-30T07:08:34.430Z,14.57
2022-09-30T07:11:04.498Z,15.23
2022-09-30T07:13:31.304Z,15.53
2022-09-30T07:15:58.190Z,14.90
2022-09-30T07:18:28.086Z,16.90
2022-09-30T07:20:56.298Z,16.50
2022-09-30T07:23:27.038Z,17.43
2022-09-30T07:26:00.331Z,17.03
2022-09-30T07:28:32.047Z,17.63
2022-09-30T07:31:30.754Z,18.07
2022-09-30T07:33:52.842Z,18.07
2022-09-30T07:36:31.871Z,17.63
2022-09-30T07:39:00.381Z,15.87
2022-09-30T07:41:29.230Z,16.40
2022-09-30T07:43:59.771Z,15.90
2022-09-30T07:46:32.390Z,16.87
2022-09-30T07:49:04.178Z,16.67
2022-09-30T07:51:35.848Z,16.23
2022-09-30T07:54:07.830Z,15.70
2022-09-30T07:56:57.814Z,17.00
2022-09-30T07:59:23.171Z,14.93
2022-09-30T08:01:50.847Z,16.97
2022-09-30T08:04:19.779Z,16.60
2022-09-30T08:06:50.142Z,15.17
2022-09-30T08:09:19.346Z,15.07
2022-09-30T08:11:46.039Z,13.77
2022-09-30T08:14:16.697Z,12.93
2022-09-30T08:16:43.447Z,14.33
2022-09-30T08:19:18.073Z,14.37
2022-09-30T08:21:45.389Z,15.27
2022-09-30T08:24:13.014Z,15.20
2022-09-30T08:26:40.400Z,14.97
2022-09-30T08:29:07.513Z,14.67
2022-09-30T08:31:34.777Z,12.37
2022-09-30T08:34:03.171Z,12.43
2022-09-30T08:36:30.412Z,12.53
2022-09-30T08:38:57.186Z,11.67
2022-09-30T08:41:43.157Z,12.43
2022-09-30T08:44:46.426Z,12.10
2022-09-30T08:47:31.519Z,11.80
2022-09-30T08:50:16.809Z,10.33
2022-09-30T08:52:54.127Z,11.57
2022-09-30T08:55:24.267Z,11.17
2022-09-30T08:57:53.042Z,11.57
2022-09-30T09:00:21.006Z,12.83
2022-09-30T09:02:57.299Z,10.70
2022-09-30T09:06:02.489Z,11.03
2022-09-30T09:08:44.243Z,10.80
2022-09-30T09:11:31.255Z,10.97
2022-09-30T09:14:31.600Z,10.30
2022-09-30T09:17:16.413Z,9.93
2022-09-30T09:19:49.566Z,11.63
2022-09-30T09:22:18.222Z,11.53
2022-09-30T09:24:49.198Z,10.80
2022-09-30T09:27:44.090Z,10.13
2022-09-30T09:30:15.697Z,10.07
2022-09-30T09:32:44.302Z,10.50
2022-09-30T09:35:17.505Z,9.73
2022-09-30T09:38:09.274Z,10.13
2022-09-30T09:40:57.392Z,9.13
2022-09-30T09:44:02.743Z,9.10
2022-09-30T09:46:46.624Z,8.87
2022-09-30T09:49:23.587Z,7.73
2022-09-30T09:51:50.193Z,9.07
2022-09-30T09:54:21.480Z,9.03
2022-09-30T09:56:48.133Z,8.63
2022-09-30T09:59:20.227Z,7.00
2022-09-30T10:01:50.629Z,6.27
2022-09-30T10:04:27.497Z,6.30
2022-09-30T10:06:55.397Z,5.70
2022-09-30T10:09:31.385Z,5.17
2022-09-30T10:12:25.944Z,6.03
2022-09-30T10:14:58.041Z,4.67
2022-09-30T10:17:29.673Z,4.70
2022-09-30T10:20:14.774Z,4.23
2022-09-30T10:22:41.693Z,4.40
2022-09-30T10:25:13.993Z,4.10
2022-09-30T10:28:20.890Z,3.90
2022-09-30T10:31:04.177Z,3.60
2022-09-30T10:33:41.819Z,3.97
2022-09-30T10:36:13.821Z,3.10
2022-09-30T10:39:19.747Z,2.43
2022-09-30T10:41:46.540Z,2.70
2022-09-30T10:44:19.946Z,2.90
2022-09-30T10:46:49.604Z,3.30
2022-09-30T10:49:31.248Z,3.20
2022-09-30T10:52:00.133Z,3.33
2022-09-30T10:54:47.230Z,2.47
2022-09-30T10:57:33.559Z,3.07
2022-09-30T11:00:07.937Z,3.20
2022-09-30T11:02:37.392Z,3.10
2022-09-30T11:05:19.194Z,1.93
2022-09-30T11:08:13.217Z,1.57
2022-09-30T11:10:53.846Z,1.60
2022-09-30T11:13:49.188Z,1.77
2022-09-30T11:16:24.933Z,1.60
2022-09-30T11:19:28.035Z,1.80
2022-09-30T11:22:09.033Z,1.90
2022-09-30T11:24:42.491Z,1.80
2022-09-30T11:27:17.833Z,1.67
2022-09-30T11:30:34.789Z,1.70
2022-09-30T11:33:17.410Z,1.30
2022-09-30T11:36:14.996Z,1.80
2022-09-30T11:39:11.588Z,1.60
2022-09-30T11:41:42.269Z,1.63
2022-09-30T11:44:23.602Z,1.70
2022-09-30T11:47:19.140Z,1.50
2022-09-30T11:49:51.504Z,1.53
2022-09-30T11:52:47.201Z,1.80
2022-09-30T11:55:42.683Z,1.50
2022-09-30T11:58:36.566Z,1.50
2022-09-30T12:01:13.405Z,1.70
2022-09-30T12:03:48.238Z,1.77
2022-09-30T12:06:40.707Z,1.90
2022-09-30T12:09:25.431Z,1.67
2022-09-30T12:11:57.738Z,1.70
2022-09-30T12:14:33.469Z,1.70
2022-09-30T12:17:03.593Z,2.20
2022-09-30T12:19:40.044Z,1.57
2022-09-30T12:22:16.323Z,1.80
2022-09-30T12:24:47.702Z,1.73
2022-09-30T12:27:41.651Z,1.70
2022-09-30T12:30:23.104Z,1.60
2022-09-30T12:32:56.179Z,2.03
2022-09-30T12:35:43.996Z,1.70
2022-09-30T12:38:39.336Z,1.70
2022-09-30T12:41:15.253Z,1.77
2022-09-30T12:43:41.787Z,1.60
2022-09-30T12:46:42.264Z,1.70
2022-09-30T12:49:15.895Z,1.57
2022-09-30T12:51:44.886Z,1.67
2022-09-30T12:54:24.728Z,1.70
2022-09-30T12:57:00.514Z,1.90
2022-09-30T12:59:32.618Z,1.80
2022-09-30T13:02:02.726Z,1.70
2022-09-30T13:04:33.376Z,1.70
2022-09-30T13:06:59.953Z,1.60
2022-09-30T13:09:55.298Z,1.30
2022-09-30T13:12:41.112Z,1.60
2022-09-30T13:15:29.272Z,1.50
2022-09-30T13:18:25.433Z,1.47
2022-09-30T13:20:57.568Z,1.70
2022-09-30T13:23:49.209Z,1.77
2022-09-30T13:26:27.989Z,1.43
2022-09-30T13:29:01.858Z,1.33
2022-09-30T13:31:32.550Z,1.40
2022-09-30T13:34:02.014Z,1.20
2022-09-30T13:36:40.928Z,1.40
2022-09-30T13:39:40.366Z,1.50
2022-09-30T13:42:06.883Z,1.50
2022-09-30T13:44:40.257Z,1.70
2022-09-30T13:47:29.965Z,1.73
2022-09-30T13:50:04.212Z,1.50
2022-09-30T13:52:34.367Z,1.60
2022-09-30T13:55:29.166Z,1.80
2022-09-30T13:58:48.219Z,2.10
2022-09-30T14:01:49.873Z,1.87
2022-09-30T14:04:55.200Z,1.83
2022-09-30T14:07:43.665Z,1.83
2022-09-30T14:10:47.640Z,1.53
2022-09-30T14:13:42.454Z,1.93
2022-09-30T14:16:20.972Z,1.70
2022-09-30T14:19:24.221Z,2.10
2022-09-30T14:21:55.159Z,1.93
2022-09-30T14:24:24.021Z,2.77
2022-09-30T14:27:02.779Z,1.60
2022-09-30T14:29:58.510Z,2.60
2022-09-30T14:32:31.588Z,2.40
2022-09-30T14:35:00.494Z,1.80
2022-09-30T14:37:38.189Z,1.70
2022-09-30T14:40:12.935Z,3.20
2022-09-30T14:42:42.592Z,2.33
2022-09-30T14:45:10.424Z,1.60
2022-09-30T14:47:40.547Z,1.67
2022-09-30T14:50:20.729Z,2.10
2022-09-30T14:52:50.164Z,2.20
2022-09-30T14:55:19.543Z,1.50
2022-09-30T14:57:46.175Z,2.20
2022-09-30T15:00:20.044Z,1.73
2022-09-30T15:02:46.894Z,2.00
2022-09-30T15:05:16.191Z,2.17
2022-09-30T15:07:43.129Z,1.60
2022-09-30T15:10:18.836Z,1.67
2022-09-30T15:12:46.801Z,1.90
2022-09-30T15:15:34.543Z,1.63
2022-09-30T15:18:21.493Z,2.00
2022-09-30T15:20:48.884Z,1.63
2022-09-30T15:23:20.016Z,2.10
2022-09-30T15:25:46.832Z,1.70
2022-09-30T15:28:13.827Z,1.87
2022-09-30T15:30:43.140Z,2.20
2022-09-30T15:33:18.007Z,2.33
2022-09-30T15:35:45.692Z,1.80
2022-09-30T15:38:15.187Z,1.60
2022-09-30T15:40:46.106Z,1.70
2022-09-30T15:43:17.044Z,2.03
2022-09-30T15:45:46.107Z,2.00
2022-09-30T15:48:16.910Z,1.97
2022-09-30T15:50:49.041Z,1.90
2022-09-30T15:53:21.426Z,2.57
2022-09-30T15:55:55.759Z,2.60
2022-09-30T15:58:33.512Z,2.20
2022-09-30T16:01:09.418Z,2.80
2022-09-30T16:03:36.921Z,2.67
2022-09-30T16:06:09.315Z,2.40
2022-09-30T16:08:43.879Z,2.43
2022-09-30T16:11:20.621Z,2.20
2022-09-30T16:13:48.394Z,2.40
2022-09-30T16:16:28.106Z,2.30
2022-09-30T16:18:56.947Z,2.97
2022-09-30T16:21:45.828Z,2.73
2022-09-30T16:24:21.182Z,2.60
2022-09-30T16:26:57.807Z,2.47
2022-09-30T16:29:26.241Z,2.50
2022-09-30T16:31:55.848Z,2.00
2022-09-30T16:34:25.768Z,2.40
2022-09-30T16:37:03.834Z,2.17
2022-09-30T16:39:32.867Z,2.40
2022-09-30T16:41:59.442Z,1.67
2022-09-30T16:44:26.018Z,2.17
2022-09-30T16:46:52.846Z,1.77
2022-09-30T16:49:20.128Z,2.03
2022-09-30T16:51:49.670Z,1.80
2022-09-30T16:54:16.331Z,1.93
2022-09-30T16:56:45.955Z,1.77
2022-09-30T16:59:14.348Z,2.00
2022-09-30T17:01:41.748Z,1.83
2022-09-30T17:04:10.343Z,2.07
2022-09-30T17:06:38.514Z,2.20
2022-09-30T17:09:05.284Z,2.30
2022-09-30T17:11:38.021Z,2.10
2022-09-30T17:14:05.698Z,2.37
2022-09-30T17:16:33.475Z,2.20
2022-09-30T17:19:00.319Z,1.97
2022-09-30T17:21:27.945Z,1.83
2022-09-30T17:23:55.939Z,1.77
2022-09-30T17:26:22.703Z,1.70
2022-09-30T17:28:49.316Z,1.80
2022-09-30T17:31:19.332Z,2.30
2022-09-30T17:33:45.958Z,2.33
2022-09-30T17:36:13.430Z,2.30
2022-09-30T17:42:22.597Z,2.07
2022-09-30T17:44:49.210Z,1.90
2022-09-30T17:47:15.818Z,2.27
2022-09-30T17:49:45.013Z,2.33
2022-09-30T17:52:17.510Z,2.63
2022-09-30T17:54:46.655Z,2.50
2022-09-30T17:57:16.716Z,2.63
2022-09-30T17:59:45.345Z,2.37
2022-09-30T18:02:13.139Z,2.50
2022-09-30T18:04:39.992Z,2.67
2022-09-30T18:07:10.207Z,2.57
2022-09-30T18:09:39.169Z,2.53
2022-09-30T18:12:07.300Z,2.83
2022-09-30T18:14:38.205Z,2.67
2022-09-30T18:17:06.271Z,2.73
2022-09-30T18:19:35.580Z,3.07
2022-09-30T18:22:02.603Z,3.30
2022-09-30T18:24:47.909Z,2.70
2022-09-30T18:27:15.226Z,2.90
2022-09-30T18:29:42.055Z,2.70
2022-09-30T18:32:09.028Z,2.67
2022-09-30T18:34:35.693Z,2.90
2022-09-30T18:37:06.759Z,3.03
2022-09-30T18:39:38.211Z,2.93
2022-09-30T18:42:05.038Z,2.90
2022-09-30T18:44:33.694Z,3.50
2022-09-30T18:47:00.387Z,3.93
2022-09-30T18:49:27.046Z,4.93
2022-09-30T18:51:53.639Z,4.80
2022-09-30T18:54:20.925Z,4.57
2022-09-30T18:56:47.707Z,4.60
2022-09-30T18:59:18.185Z,4.00
2022-09-30T19:01:48.047Z,3.40
2022-09-30T19:04:15.161Z,3.83
2022-09-30T19:06:47.235Z,3.43
2022-09-30T19:09:16.424Z,3.03
2022-09-30T19:11:44.864Z,2.33
2022-09-30T19:14:13.741Z,2.50
2022-09-30T19:16:40.722Z,2.70
2022-09-30T19:19:10.387Z,3.30
2022-09-30T19:21:38.191Z,2.50
2022-09-30T19:24:06.865Z,2.40
2022-09-30T19:26:38.200Z,2.47
2022-09-30T19:29:07.271Z,2.47
2022-09-30T19:31:36.417Z,2.70
2022-09-30T19:34:14.655Z,2.97
2022-09-30T19:36:51.158Z,3.10
2022-09-30T19:39:45.417Z,3.10
2022-09-30T19:42:23.853Z,2.63
2022-09-30T19:44:56.204Z,2.80
2022-09-30T19:47:22.841Z,2.90
2022-09-30T19:49:49.547Z,3.30
2022-09-30T19:52:22.347Z,3.17
2022-09-30T19:54:50.804Z,3.30
2022-09-30T19:57:17.407Z,3.33
2022-09-30T19:59:44.085Z,2.87
2022-09-30T20:02:11.591Z,2.97
2022-09-30T20:04:39.686Z,2.90
2022-09-30T20:07:06.361Z,3.10
2022-09-30T20:09:32.980Z,3.63
2022-09-30T20:11:59.691Z,4.20
2022-09-30T20:14:44.840Z,3.33
2022-09-30T20:17:12.440Z,3.37
2022-09-30T20:19:39.220Z,3.50
2022-09-30T20:22:33.356Z,3.27
2022-09-30T20:25:25.654Z,3.10
2022-09-30T20:27:52.851Z,3.03
2022-09-30T20:30:25.602Z,2.73
2022-09-30T20:32:53.424Z,3.47
2022-09-30T20:35:21.283Z,3.17
2022-09-30T20:37:47.942Z,3.13
2022-09-30T20:40:14.845Z,3.00
2022-09-30T20:42:43.766Z,3.13
2022-09-30T20:45:11.000Z,3.50
2022-09-30T20:47:39.760Z,3.63
2022-09-30T20:50:07.099Z,3.10
2022-09-30T20:52:34.062Z,3.37
2022-09-30T20:55:03.256Z,2.67
2022-09-30T20:57:30.211Z,2.73
2022-09-30T20:59:59.211Z,2.70
2022-09-30T21:02:28.192Z,2.73
2022-09-30T21:04:57.571Z,3.43
2022-09-30T21:07:25.378Z,3.20
2022-09-30T21:09:52.612Z,3.53
2022-09-30T21:12:19.430Z,3.37
2022-09-30T21:14:46.170Z,3.33
2022-09-30T21:17:12.875Z,3.60
2022-09-30T21:19:40.033Z,3.13
2022-09-30T21:22:07.289Z,3.03
2022-09-30T21:24:41.246Z,3.20
2022-09-30T21:30:04.411Z,3.27
2022-09-30T21:32:30.989Z,3.77
2022-09-30T21:34:57.577Z,3.70
2022-09-30T21:37:24.668Z,3.63
2022-09-30T21:39:51.478Z,3.50
2022-09-30T21:42:19.029Z,3.23
2022-09-30T21:44:45.734Z,2.83
2022-09-30T21:47:12.315Z,3.03
2022-09-30T21:49:38.909Z,3.03
2022-09-30T21:52:09.253Z,3.10
2022-09-30T21:54:37.289Z,3.50
2022-09-30T21:57:04.007Z,3.40
2022-09-30T21:59:30.734Z,3.57
2022-09-30T22:01:57.446Z,3.50
2022-09-30T22:04:24.312Z,3.50
2022-09-30T22:06:50.987Z,4.17
2022-09-30T22:09:17.648Z,3.53
2022-09-30T22:11:44.340Z,3.57
2022-09-30T22:14:10.932Z,3.37
2022-09-30T22:16:38.116Z,3.50
2022-09-30T22:19:07.463Z,4.00
2022-09-30T22:21:36.898Z,3.27
2022-09-30T22:24:06.070Z,3.97
2022-09-30T22:26:33.379Z,3.90
2022-09-30T22:29:07.928Z,4.13
2022-09-30T22:31:34.995Z,4.10
2022-09-30T22:34:22.504Z,3.90
2022-09-30T22:37:08.016Z,3.37
2022-09-30T22:39:35.242Z,3.90
2022-09-30T22:42:02.264Z,3.70
2022-09-30T22:44:32.531Z,3.77
2022-09-30T22:47:00.235Z,3.87
2022-09-30T22:49:29.379Z,3.80
2022-09-30T22:51:56.990Z,3.30
2022-09-30T22:54:25.292Z,3.90
2022-09-30T22:56:52.335Z,3.23
2022-09-30T22:59:19.886Z,3.53
2022-09-30T23:01:46.858Z,3.13
2022-09-30T23:04:17.394Z,3.73
2022-09-30T23:06:49.043Z,3.20
2022-09-30T23:09:17.370Z,3.90
2022-09-30T23:11:46.081Z,3.70
2022-09-30T23:14:13.175Z,3.10
2022-09-30T23:16:40.347Z,3.70
2022-09-30T23:19:07.186Z,3.50
2022-09-30T23:21:34.261Z,3.47
2022-09-30T23:24:03.188Z,3.10
2022-09-30T23:26:31.192Z,3.90
2022-09-30T23:28:59.046Z,4.03
2022-09-30T23:31:26.573Z,4.10
2022-09-30T23:33:56.755Z,4.03
2022-09-30T23:36:32.036Z,3.73
2022-09-30T23:39:04.752Z,3.93
2022-09-30T23:41:32.816Z,3.53
2022-09-30T23:44:00.022Z,4.00
2022-09-30T23:46:26.925Z,4.03
2022-09-30T23:48:53.609Z,3.93
2022-09-30T23:51:20.279Z,4.10
2022-09-30T23:53:46.977Z,3.70
2022-09-30T23:56:16.385Z,3.90
2022-09-30T23:58:43.874Z,3.80
